sensor_id;sensor_type;location;lat;lon;timestamp;P1;durP1;ratioP1;P2;durP2;ratioP2
26413;SDS011;14108;53.668;10.288;2022-09-03T00:00:03;1.12;;;0.90;;
26413;SDS011;14108;53.668;10.288;2022-09-03T00:02:34;2.00;;;1.02;;
26413;SDS011;14108;53.668;10.288;2022-09-03T00:05:04;1.00;;;0.75;;
26413;SDS011;14108;53.668;10.288;2022-09-03T00:07:35;0.93;;;0.80;;
26413;SDS011;14108;53.668;10.288;2022-09-03T00:10:06;1.30;;;1.00;;
26413;SDS011;14108;53.668;10.288;2022-09-03T00:12:36;1.60;;;0.80;;
26413;SDS011;14108;53.668;10.288;2022-09-03T00:15:05;1.30;;;0.95;;
26413;SDS011;14108;53.668;10.288;2022-09-03T00:17:35;1.58;;;0.95;;
26413;SDS011;14108;53.668;10.288;2022-09-03T00:20:04;1.42;;;1.00;;
26413;SDS011;14108;53.668;10.288;2022-09-03T00:22:33;3.50;;;0.90;;
26413;SDS011;14108;53.668;10.288;2022-09-03T00:25:03;1.12;;;0.80;;
26413;SDS011;14108;53.668;10.288;2022-09-03T00:27:32;2.53;;;0.88;;
26413;SDS011;14108;53.668;10.288;2022-09-03T00:30:04;3.10;;;1.05;;
26413;SDS011;14108;53.668;10.288;2022-09-03T00:32:36;1.10;;;1.00;;
26413;SDS011;14108;53.668;10.288;2022-09-03T00:35:07;2.37;;;0.90;;
26413;SDS011;14108;53.668;10.288;2022-09-03T00:37:38;1.00;;;0.80;;
26413;SDS011;14108;53.668;10.288;2022-09-03T00:40:09;1.12;;;0.73;;
26413;SDS011;14108;53.668;10.288;2022-09-03T00:42:42;1.75;;;1.10;;
26413;SDS011;14108;53.668;10.288;2022-09-03T00:45:16;2.42;;;0.88;;
26413;SDS011;14108;53.668;10.288;2022-09-03T00:47:51;2.50;;;1.50;;
26413;SDS011;14108;53.668;10.288;2022-09-03T00:50:22;1.27;;;0.93;;
26413;SDS011;14108;53.668;10.288;2022-09-03T00:52:57;1.50;;;1.12;;
26413;SDS011;14108;53.668;10.288;2022-09-03T00:55:26;0.93;;;0.75;;
26413;SDS011;14108;53.668;10.288;2022-09-03T00:58:01;1.67;;;0.90;;
26413;SDS011;14108;53.668;10.288;2022-09-03T01:00:30;1.67;;;1.00;;
26413;SDS011;14108;53.668;10.288;2022-09-03T01:03:00;1.40;;;0.90;;
26413;SDS011;14108;53.668;10.288;2022-09-03T01:05:40;2.58;;;0.80;;
26413;SDS011;14108;53.668;10.288;2022-09-03T01:08:15;4.10;;;0.90;;
26413;SDS011;14108;53.668;10.288;2022-09-03T01:10:48;2.08;;;0.82;;
26413;SDS011;14108;53.668;10.288;2022-09-03T01:13:20;2.60;;;1.02;;
26413;SDS011;14108;53.668;10.288;2022-09-03T01:15:50;3.70;;;1.15;;
26413;SDS011;14108;53.668;10.288;2022-09-03T01:18:22;1.73;;;1.17;;
26413;SDS011;14108;53.668;10.288;2022-09-03T01:20:57;1.35;;;1.10;;
26413;SDS011;14108;53.668;10.288;2022-09-03T01:23:38;0.98;;;0.95;;
26413;SDS011;14108;53.668;10.288;2022-09-03T01:26:18;1.05;;;0.93;;
26413;SDS011;14108;53.668;10.288;2022-09-03T01:28:52;0.75;;;0.75;;
26413;SDS011;14108;53.668;10.288;2022-09-03T01:31:24;3.20;;;0.90;;
26413;SDS011;14108;53.668;10.288;2022-09-03T01:33:55;2.28;;;1.73;;
26413;SDS011;14108;53.668;10.288;2022-09-03T01:36:28;3.22;;;1.08;;
26413;SDS011;14108;53.668;10.288;2022-09-03T01:38:59;1.40;;;1.27;;
26413;SDS011;14108;53.668;10.288;2022-09-03T01:41:30;1.67;;;1.17;;
26413;SDS011;14108;53.668;10.288;2022-09-03T01:44:21;1.50;;;0.90;;
26413;SDS011;14108;53.668;10.288;2022-09-03T01:47:01;2.00;;;1.10;;
26413;SDS011;14108;53.668;10.288;2022-09-03T01:49:37;1.08;;;0.85;;
26413;SDS011;14108;53.668;10.288;2022-09-03T01:52:06;1.45;;;1.00;;
26413;SDS011;14108;53.668;10.288;2022-09-03T01:54:46;1.35;;;1.10;;
26413;SDS011;14108;53.668;10.288;2022-09-03T01:57:26;2.35;;;1.10;;
26413;SDS011;14108;53.668;10.288;2022-09-03T01:59:58;3.35;;;1.00;;
26413;SDS011;14108;53.668;10.288;2022-09-03T02:02:28;0.98;;;0.80;;
26413;SDS011;14108;53.668;10.288;2022-09-03T02:04:58;2.75;;;0.90;;
26413;SDS011;14108;53.668;10.288;2022-09-03T02:07:27;1.12;;;1.02;;
26413;SDS011;14108;53.668;10.288;2022-09-03T02:09:58;0.80;;;0.73;;
26413;SDS011;14108;53.668;10.288;2022-09-03T02:12:25;3.45;;;1.50;;
26413;SDS011;14108;53.668;10.288;2022-09-03T02:14:58;2.05;;;1.00;;
26413;SDS011;14108;53.668;10.288;2022-09-03T02:17:28;1.20;;;1.00;;
26413;SDS011;14108;53.668;10.288;2022-09-03T02:19:55;2.42;;;1.12;;
26413;SDS011;14108;53.668;10.288;2022-09-03T02:22:22;3.12;;;1.12;;
26413;SDS011;14108;53.668;10.288;2022-09-03T02:24:50;2.20;;;1.20;;
26413;SDS011;14108;53.668;10.288;2022-09-03T02:27:17;1.92;;;1.20;;
26413;SDS011;14108;53.668;10.288;2022-09-03T02:29:45;1.30;;;0.90;;
26413;SDS011;14108;53.668;10.288;2022-09-03T02:32:12;1.67;;;1.20;;
26413;SDS011;14108;53.668;10.288;2022-09-03T02:34:40;2.33;;;0.90;;
26413;SDS011;14108;53.668;10.288;2022-09-03T02:37:11;2.28;;;1.10;;
26413;SDS011;14108;53.668;10.288;2022-09-03T02:39:38;1.08;;;0.70;;
26413;SDS011;14108;53.668;10.288;2022-09-03T02:42:06;1.73;;;1.20;;
26413;SDS011;14108;53.668;10.288;2022-09-03T02:44:34;3.78;;;1.10;;
26413;SDS011;14108;53.668;10.288;2022-09-03T02:47:03;1.95;;;1.00;;
26413;SDS011;14108;53.668;10.288;2022-09-03T02:49:31;2.12;;;1.52;;
26413;SDS011;14108;53.668;10.288;2022-09-03T02:51:58;1.10;;;0.90;;
26413;SDS011;14108;53.668;10.288;2022-09-03T02:54:26;1.55;;;1.30;;
26413;SDS011;14108;53.668;10.288;2022-09-03T02:56:53;1.60;;;0.90;;
26413;SDS011;14108;53.668;10.288;2022-09-03T02:59:20;1.98;;;0.90;;
26413;SDS011;14108;53.668;10.288;2022-09-03T03:01:47;1.17;;;0.90;;
26413;SDS011;14108;53.668;10.288;2022-09-03T03:04:14;1.37;;;1.08;;
26413;SDS011;14108;53.668;10.288;2022-09-03T03:06:41;1.23;;;1.10;;
26413;SDS011;14108;53.668;10.288;2022-09-03T03:09:08;2.62;;;1.00;;
26413;SDS011;14108;53.668;10.288;2022-09-03T03:11:35;1.33;;;1.00;;
26413;SDS011;14108;53.668;10.288;2022-09-03T03:14:03;1.75;;;1.05;;
26413;SDS011;14108;53.668;10.288;2022-09-03T03:16:30;1.37;;;0.82;;
26413;SDS011;14108;53.668;10.288;2022-09-03T03:18:57;1.75;;;0.93;;
26413;SDS011;14108;53.668;10.288;2022-09-03T03:24:00;2.45;;;1.30;;
26413;SDS011;14108;53.668;10.288;2022-09-03T03:26:27;2.85;;;0.90;;
26413;SDS011;14108;53.668;10.288;2022-09-03T03:28:55;1.48;;;1.17;;
26413;SDS011;14108;53.668;10.288;2022-09-03T03:31:23;1.77;;;1.10;;
26413;SDS011;14108;53.668;10.288;2022-09-03T03:33:51;1.65;;;1.05;;
26413;SDS011;14108;53.668;10.288;2022-09-03T03:36:18;1.75;;;1.12;;
26413;SDS011;14108;53.668;10.288;2022-09-03T03:38:45;1.23;;;0.95;;
26413;SDS011;14108;53.668;10.288;2022-09-03T03:41:13;1.70;;;1.10;;
26413;SDS011;14108;53.668;10.288;2022-09-03T03:43:41;3.62;;;1.40;;
26413;SDS011;14108;53.668;10.288;2022-09-03T03:46:09;0.85;;;0.85;;
26413;SDS011;14108;53.668;10.288;2022-09-03T03:48:36;4.65;;;0.98;;
26413;SDS011;14108;53.668;10.288;2022-09-03T03:51:05;1.00;;;0.90;;
26413;SDS011;14108;53.668;10.288;2022-09-03T03:53:32;2.97;;;1.15;;
26413;SDS011;14108;53.668;10.288;2022-09-03T03:56:01;3.67;;;2.50;;
26413;SDS011;14108;53.668;10.288;2022-09-03T03:58:29;12.50;;;2.90;;
26413;SDS011;14108;53.668;10.288;2022-09-03T04:01:03;13.38;;;2.20;;
26413;SDS011;14108;53.668;10.288;2022-09-03T04:05:56;17.67;;;3.85;;
26413;SDS011;14108;53.668;10.288;2022-09-03T04:08:24;30.23;;;7.85;;
26413;SDS011;14108;53.668;10.288;2022-09-03T04:10:51;45.80;;;8.32;;
26413;SDS011;14108;53.668;10.288;2022-09-03T04:13:18;30.45;;;6.07;;
26413;SDS011;14108;53.668;10.288;2022-09-03T04:15:45;25.45;;;4.87;;
26413;SDS011;14108;53.668;10.288;2022-09-03T04:18:12;28.50;;;5.82;;
26413;SDS011;14108;53.668;10.288;2022-09-03T04:20:40;19.73;;;4.53;;
26413;SDS011;14108;53.668;10.288;2022-09-03T04:23:07;20.08;;;3.85;;
26413;SDS011;14108;53.668;10.288;2022-09-03T04:25:34;21.70;;;3.45;;
26413;SDS011;14108;53.668;10.288;2022-09-03T04:28:01;18.00;;;3.60;;
26413;SDS011;14108;53.668;10.288;2022-09-03T04:30:29;7.90;;;2.08;;
26413;SDS011;14108;53.668;10.288;2022-09-03T04:32:56;11.40;;;2.67;;
26413;SDS011;14108;53.668;10.288;2022-09-03T04:35:24;10.50;;;2.45;;
26413;SDS011;14108;53.668;10.288;2022-09-03T04:37:53;18.05;;;4.50;;
26413;SDS011;14108;53.668;10.288;2022-09-03T04:40:22;20.50;;;5.55;;
26413;SDS011;14108;53.668;10.288;2022-09-03T04:42:49;10.15;;;4.00;;
26413;SDS011;14108;53.668;10.288;2022-09-03T04:45:18;10.43;;;3.17;;
26413;SDS011;14108;53.668;10.288;2022-09-03T04:47:48;13.82;;;3.90;;
26413;SDS011;14108;53.668;10.288;2022-09-03T04:50:21;18.65;;;4.82;;
26413;SDS011;14108;53.668;10.288;2022-09-03T04:52:48;15.50;;;4.75;;
26413;SDS011;14108;53.668;10.288;2022-09-03T04:55:15;15.05;;;3.95;;
26413;SDS011;14108;53.668;10.288;2022-09-03T04:57:44;13.18;;;3.87;;
26413;SDS011;14108;53.668;10.288;2022-09-03T05:00:11;25.67;;;6.57;;
26413;SDS011;14108;53.668;10.288;2022-09-03T05:02:38;35.15;;;6.65;;
26413;SDS011;14108;53.668;10.288;2022-09-03T05:05:06;28.27;;;6.12;;
26413;SDS011;14108;53.668;10.288;2022-09-03T05:07:33;7.05;;;3.00;;
26413;SDS011;14108;53.668;10.288;2022-09-03T05:10:05;16.73;;;3.97;;
26413;SDS011;14108;53.668;10.288;2022-09-03T05:12:32;16.42;;;3.28;;
26413;SDS011;14108;53.668;10.288;2022-09-03T05:14:59;8.07;;;2.65;;
26413;SDS011;14108;53.668;10.288;2022-09-03T05:17:26;7.35;;;2.12;;
26413;SDS011;14108;53.668;10.288;2022-09-03T05:19:53;7.85;;;2.55;;
26413;SDS011;14108;53.668;10.288;2022-09-03T05:22:20;13.93;;;4.72;;
26413;SDS011;14108;53.668;10.288;2022-09-03T05:24:47;19.00;;;5.07;;
26413;SDS011;14108;53.668;10.288;2022-09-03T05:27:14;12.40;;;3.58;;
26413;SDS011;14108;53.668;10.288;2022-09-03T05:29:42;4.40;;;1.65;;
26413;SDS011;14108;53.668;10.288;2022-09-03T05:32:10;3.10;;;0.80;;
26413;SDS011;14108;53.668;10.288;2022-09-03T05:34:37;1.05;;;0.90;;
26413;SDS011;14108;53.668;10.288;2022-09-03T05:37:04;1.42;;;1.00;;
26413;SDS011;14108;53.668;10.288;2022-09-03T05:39:31;0.80;;;0.80;;
26413;SDS011;14108;53.668;10.288;2022-09-03T05:41:58;1.02;;;0.90;;
26413;SDS011;14108;53.668;10.288;2022-09-03T05:44:26;1.20;;;0.90;;
26413;SDS011;14108;53.668;10.288;2022-09-03T05:46:53;3.67;;;1.02;;
26413;SDS011;14108;53.668;10.288;2022-09-03T05:49:20;1.40;;;1.00;;
26413;SDS011;14108;53.668;10.288;2022-09-03T05:51:47;3.50;;;1.08;;
26413;SDS011;14108;53.668;10.288;2022-09-03T05:54:14;4.15;;;1.20;;
26413;SDS011;14108;53.668;10.288;2022-09-03T05:56:41;1.25;;;1.08;;
26413;SDS011;14108;53.668;10.288;2022-09-03T05:59:09;2.08;;;1.15;;
26413;SDS011;14108;53.668;10.288;2022-09-03T06:01:38;1.95;;;0.93;;
26413;SDS011;14108;53.668;10.288;2022-09-03T06:04:06;1.35;;;0.90;;
26413;SDS011;14108;53.668;10.288;2022-09-03T06:06:35;1.40;;;0.85;;
26413;SDS011;14108;53.668;10.288;2022-09-03T06:09:03;0.98;;;0.90;;
26413;SDS011;14108;53.668;10.288;2022-09-03T06:11:30;1.10;;;1.00;;
26413;SDS011;14108;53.668;10.288;2022-09-03T06:13:58;1.45;;;1.10;;
26413;SDS011;14108;53.668;10.288;2022-09-03T06:16:26;3.75;;;1.20;;
26413;SDS011;14108;53.668;10.288;2022-09-03T06:18:54;2.72;;;1.08;;
26413;SDS011;14108;53.668;10.288;2022-09-03T06:21:21;5.70;;;1.17;;
26413;SDS011;14108;53.668;10.288;2022-09-03T06:23:49;1.12;;;0.90;;
26413;SDS011;14108;53.668;10.288;2022-09-03T06:26:16;2.37;;;1.00;;
26413;SDS011;14108;53.668;10.288;2022-09-03T06:28:44;2.28;;;1.20;;
26413;SDS011;14108;53.668;10.288;2022-09-03T06:31:13;1.98;;;1.20;;
26413;SDS011;14108;53.668;10.288;2022-09-03T06:33:40;3.97;;;1.10;;
26413;SDS011;14108;53.668;10.288;2022-09-03T06:36:09;2.40;;;1.00;;
26413;SDS011;14108;53.668;10.288;2022-09-03T06:38:37;1.40;;;1.15;;
26413;SDS011;14108;53.668;10.288;2022-09-03T06:41:05;2.58;;;1.25;;
26413;SDS011;14108;53.668;10.288;2022-09-03T06:43:33;2.15;;;1.10;;
26413;SDS011;14108;53.668;10.288;2022-09-03T06:46:02;6.85;;;1.25;;
26413;SDS011;14108;53.668;10.288;2022-09-03T06:48:30;2.20;;;1.20;;
26413;SDS011;14108;53.668;10.288;2022-09-03T06:50:59;2.97;;;1.00;;
26413;SDS011;14108;53.668;10.288;2022-09-03T06:53:27;1.50;;;1.15;;
26413;SDS011;14108;53.668;10.288;2022-09-03T06:55:55;4.57;;;1.20;;
26413;SDS011;14108;53.668;10.288;2022-09-03T06:58:22;2.67;;;1.20;;
26413;SDS011;14108;53.668;10.288;2022-09-03T07:00:49;2.12;;;1.08;;
26413;SDS011;14108;53.668;10.288;2022-09-03T07:03:18;2.20;;;1.33;;
26413;SDS011;14108;53.668;10.288;2022-09-03T07:05:45;1.77;;;1.23;;
26413;SDS011;14108;53.668;10.288;2022-09-03T07:08:12;3.87;;;1.30;;
26413;SDS011;14108;53.668;10.288;2022-09-03T07:10:39;1.17;;;1.00;;
26413;SDS011;14108;53.668;10.288;2022-09-03T07:13:08;3.35;;;1.17;;
26413;SDS011;14108;53.668;10.288;2022-09-03T07:15:35;1.90;;;1.40;;
26413;SDS011;14108;53.668;10.288;2022-09-03T07:18:02;1.33;;;1.10;;
26413;SDS011;14108;53.668;10.288;2022-09-03T07:20:29;1.33;;;1.05;;
26413;SDS011;14108;53.668;10.288;2022-09-03T07:22:56;2.00;;;1.10;;
26413;SDS011;14108;53.668;10.288;2022-09-03T07:25:23;5.22;;;2.03;;
26413;SDS011;14108;53.668;10.288;2022-09-03T07:27:51;2.33;;;1.50;;
26413;SDS011;14108;53.668;10.288;2022-09-03T07:30:19;1.85;;;0.98;;
26413;SDS011;14108;53.668;10.288;2022-09-03T07:32:46;2.60;;;0.90;;
26413;SDS011;14108;53.668;10.288;2022-09-03T07:35:16;3.30;;;1.27;;
26413;SDS011;14108;53.668;10.288;2022-09-03T07:37:44;2.10;;;1.10;;
26413;SDS011;14108;53.668;10.288;2022-09-03T07:40:11;2.03;;;1.20;;
26413;SDS011;14108;53.668;10.288;2022-09-03T07:42:40;1.92;;;1.15;;
26413;SDS011;14108;53.668;10.288;2022-09-03T07:45:07;3.95;;;1.25;;
26413;SDS011;14108;53.668;10.288;2022-09-03T07:47:35;2.40;;;0.98;;
26413;SDS011;14108;53.668;10.288;2022-09-03T07:50:03;1.83;;;1.17;;
26413;SDS011;14108;53.668;10.288;2022-09-03T07:52:30;1.60;;;1.40;;
26413;SDS011;14108;53.668;10.288;2022-09-03T07:54:57;1.58;;;1.08;;
26413;SDS011;14108;53.668;10.288;2022-09-03T07:57:24;2.35;;;1.23;;
26413;SDS011;14108;53.668;10.288;2022-09-03T08:02:27;2.40;;;1.20;;
26413;SDS011;14108;53.668;10.288;2022-09-03T08:04:54;1.62;;;1.15;;
26413;SDS011;14108;53.668;10.288;2022-09-03T08:07:21;4.32;;;1.08;;
26413;SDS011;14108;53.668;10.288;2022-09-03T08:09:48;1.73;;;1.20;;
26413;SDS011;14108;53.668;10.288;2022-09-03T08:12:15;1.83;;;1.25;;
26413;SDS011;14108;53.668;10.288;2022-09-03T08:14:42;2.25;;;1.40;;
26413;SDS011;14108;53.668;10.288;2022-09-03T08:17:09;1.80;;;1.45;;
26413;SDS011;14108;53.668;10.288;2022-09-03T08:19:37;3.08;;;1.10;;
26413;SDS011;14108;53.668;10.288;2022-09-03T08:22:05;1.65;;;1.30;;
26413;SDS011;14108;53.668;10.288;2022-09-03T08:24:32;2.05;;;1.20;;
26413;SDS011;14108;53.668;10.288;2022-09-03T08:27:00;2.17;;;1.50;;
26413;SDS011;14108;53.668;10.288;2022-09-03T08:29:28;2.92;;;1.20;;
26413;SDS011;14108;53.668;10.288;2022-09-03T08:31:55;3.30;;;1.40;;
26413;SDS011;14108;53.668;10.288;2022-09-03T08:34:22;1.87;;;1.10;;
26413;SDS011;14108;53.668;10.288;2022-09-03T08:36:49;2.70;;;1.00;;
26413;SDS011;14108;53.668;10.288;2022-09-03T08:39:17;1.95;;;1.30;;
26413;SDS011;14108;53.668;10.288;2022-09-03T08:41:59;1.50;;;1.20;;
26413;SDS011;14108;53.668;10.288;2022-09-03T08:44:28;1.95;;;1.00;;
26413;SDS011;14108;53.668;10.288;2022-09-03T08:46:57;3.92;;;1.30;;
26413;SDS011;14108;53.668;10.288;2022-09-03T08:49:26;2.75;;;1.17;;
26413;SDS011;14108;53.668;10.288;2022-09-03T08:51:54;2.80;;;1.30;;
26413;SDS011;14108;53.668;10.288;2022-09-03T08:54:23;4.43;;;1.02;;
26413;SDS011;14108;53.668;10.288;2022-09-03T08:56:51;4.05;;;1.23;;
26413;SDS011;14108;53.668;10.288;2022-09-03T08:59:19;1.20;;;1.00;;
26413;SDS011;14108;53.668;10.288;2022-09-03T09:01:50;2.00;;;1.20;;
26413;SDS011;14108;53.668;10.288;2022-09-03T09:04:21;2.90;;;1.40;;
26413;SDS011;14108;53.668;10.288;2022-09-03T09:06:52;2.33;;;1.30;;
26413;SDS011;14108;53.668;10.288;2022-09-03T09:09:24;2.20;;;1.25;;
26413;SDS011;14108;53.668;10.288;2022-09-03T09:11:59;3.85;;;1.10;;
26413;SDS011;14108;53.668;10.288;2022-09-03T09:14:29;2.10;;;1.55;;
26413;SDS011;14108;53.668;10.288;2022-09-03T09:17:01;1.65;;;1.40;;
26413;SDS011;14108;53.668;10.288;2022-09-03T09:19:40;1.48;;;1.05;;
26413;SDS011;14108;53.668;10.288;2022-09-03T09:22:09;2.45;;;1.12;;
26413;SDS011;14108;53.668;10.288;2022-09-03T09:24:38;1.98;;;1.30;;
26413;SDS011;14108;53.668;10.288;2022-09-03T09:27:07;1.85;;;1.05;;
26413;SDS011;14108;53.668;10.288;2022-09-03T09:29:35;6.87;;;1.67;;
26413;SDS011;14108;53.668;10.288;2022-09-03T09:32:02;2.65;;;1.20;;
26413;SDS011;14108;53.668;10.288;2022-09-03T09:34:33;1.40;;;1.00;;
26413;SDS011;14108;53.668;10.288;2022-09-03T09:37:01;1.95;;;1.02;;
26413;SDS011;14108;53.668;10.288;2022-09-03T09:39:29;3.33;;;1.10;;
26413;SDS011;14108;53.668;10.288;2022-09-03T09:41:56;3.87;;;1.27;;
26413;SDS011;14108;53.668;10.288;2022-09-03T09:44:24;1.05;;;1.00;;
26413;SDS011;14108;53.668;10.288;2022-09-03T09:47:00;1.08;;;0.75;;
26413;SDS011;14108;53.668;10.288;2022-09-03T09:49:31;3.55;;;1.00;;
26413;SDS011;14108;53.668;10.288;2022-09-03T09:52:00;2.83;;;1.77;;
26413;SDS011;14108;53.668;10.288;2022-09-03T09:54:28;0.80;;;0.80;;
26413;SDS011;14108;53.668;10.288;2022-09-03T09:59:34;4.43;;;1.30;;
26413;SDS011;14108;53.668;10.288;2022-09-03T10:02:10;1.45;;;0.98;;
26413;SDS011;14108;53.668;10.288;2022-09-03T10:04:37;1.75;;;1.10;;
26413;SDS011;14108;53.668;10.288;2022-09-03T10:07:14;2.10;;;1.58;;
26413;SDS011;14108;53.668;10.288;2022-09-03T10:09:44;1.33;;;1.23;;
26413;SDS011;14108;53.668;10.288;2022-09-03T10:12:13;4.62;;;1.17;;
26413;SDS011;14108;53.668;10.288;2022-09-03T10:14:44;0.90;;;0.90;;
26413;SDS011;14108;53.668;10.288;2022-09-03T10:17:15;2.92;;;1.20;;
26413;SDS011;14108;53.668;10.288;2022-09-03T10:19:47;3.65;;;1.20;;
26413;SDS011;14108;53.668;10.288;2022-09-03T10:22:53;3.05;;;0.90;;
26413;SDS011;14108;53.668;10.288;2022-09-03T10:25:20;3.10;;;1.08;;
26413;SDS011;14108;53.668;10.288;2022-09-03T10:27:50;1.50;;;0.85;;
26413;SDS011;14108;53.668;10.288;2022-09-03T10:30:18;1.73;;;1.15;;
26413;SDS011;14108;53.668;10.288;2022-09-03T10:32:48;1.87;;;0.90;;
26413;SDS011;14108;53.668;10.288;2022-09-03T10:35:23;3.25;;;0.90;;
26413;SDS011;14108;53.668;10.288;2022-09-03T10:37:53;1.65;;;0.80;;
26413;SDS011;14108;53.668;10.288;2022-09-03T10:40:26;4.47;;;1.00;;
26413;SDS011;14108;53.668;10.288;2022-09-03T10:43:02;2.33;;;0.90;;
26413;SDS011;14108;53.668;10.288;2022-09-03T10:45:34;1.60;;;0.90;;
26413;SDS011;14108;53.668;10.288;2022-09-03T10:48:09;3.05;;;0.70;;
26413;SDS011;14108;53.668;10.288;2022-09-03T10:53:09;2.10;;;0.80;;
26413;SDS011;14108;53.668;10.288;2022-09-03T10:55:40;3.45;;;1.10;;
26413;SDS011;14108;53.668;10.288;2022-09-03T10:58:14;1.45;;;0.85;;
26413;SDS011;14108;53.668;10.288;2022-09-03T11:00:45;1.42;;;1.08;;
26413;SDS011;14108;53.668;10.288;2022-09-03T11:06:05;1.65;;;1.00;;
26413;SDS011;14108;53.668;10.288;2022-09-03T11:08:36;1.60;;;1.00;;
26413;SDS011;14108;53.668;10.288;2022-09-03T11:13:36;1.17;;;0.90;;
26413;SDS011;14108;53.668;10.288;2022-09-03T11:16:05;2.50;;;1.15;;
26413;SDS011;14108;53.668;10.288;2022-09-03T11:18:39;2.97;;;1.07;;
26413;SDS011;14108;53.668;10.288;2022-09-03T11:21:08;1.80;;;1.25;;
26413;SDS011;14108;53.668;10.288;2022-09-03T11:23:37;2.78;;;1.00;;
26413;SDS011;14108;53.668;10.288;2022-09-03T11:26:07;3.22;;;1.00;;
26413;SDS011;14108;53.668;10.288;2022-09-03T11:28:38;3.78;;;0.82;;
26413;SDS011;14108;53.668;10.288;2022-09-03T11:31:15;1.12;;;0.80;;
26413;SDS011;14108;53.668;10.288;2022-09-03T11:33:48;2.05;;;1.27;;
26413;SDS011;14108;53.668;10.288;2022-09-03T11:36:25;1.17;;;1.00;;
26413;SDS011;14108;53.668;10.288;2022-09-03T11:38:54;1.40;;;1.08;;
26413;SDS011;14108;53.668;10.288;2022-09-03T11:41:25;2.25;;;0.90;;
26413;SDS011;14108;53.668;10.288;2022-09-03T11:43:52;1.08;;;0.80;;
26413;SDS011;14108;53.668;10.288;2022-09-03T11:46:27;21.50;;;2.40;;
26413;SDS011;14108;53.668;10.288;2022-09-03T11:48:55;1.48;;;1.02;;
26413;SDS011;14108;53.668;10.288;2022-09-03T11:51:30;1.12;;;0.95;;
26413;SDS011;14108;53.668;10.288;2022-09-03T11:53:59;0.90;;;0.80;;
26413;SDS011;14108;53.668;10.288;2022-09-03T11:56:27;0.95;;;0.60;;
26413;SDS011;14108;53.668;10.288;2022-09-03T12:01:45;1.90;;;0.82;;
26413;SDS011;14108;53.668;10.288;2022-09-03T12:04:18;1.73;;;0.95;;
26413;SDS011;14108;53.668;10.288;2022-09-03T12:09:53;2.28;;;0.90;;
26413;SDS011;14108;53.668;10.288;2022-09-03T12:12:31;1.02;;;0.90;;
26413;SDS011;14108;53.668;10.288;2022-09-03T12:15:02;4.12;;;1.17;;
26413;SDS011;14108;53.668;10.288;2022-09-03T12:17:31;3.15;;;0.70;;
26413;SDS011;14108;53.668;10.288;2022-09-03T12:20:01;0.95;;;0.77;;
26413;SDS011;14108;53.668;10.288;2022-09-03T12:22:29;0.73;;;0.70;;
26413;SDS011;14108;53.668;10.288;2022-09-03T12:25:06;1.27;;;0.80;;
26413;SDS011;14108;53.668;10.288;2022-09-03T12:27:33;4.18;;;0.82;;
26413;SDS011;14108;53.668;10.288;2022-09-03T12:30:01;3.42;;;1.00;;
26413;SDS011;14108;53.668;10.288;2022-09-03T12:32:29;1.15;;;0.80;;
26413;SDS011;14108;53.668;10.288;2022-09-03T12:35:10;1.83;;;0.82;;
26413;SDS011;14108;53.668;10.288;2022-09-03T12:37:37;4.90;;;0.82;;
26413;SDS011;14108;53.668;10.288;2022-09-03T12:40:15;0.98;;;0.70;;
26413;SDS011;14108;53.668;10.288;2022-09-03T12:42:43;0.82;;;0.60;;
26413;SDS011;14108;53.668;10.288;2022-09-03T12:45:11;4.80;;;1.00;;
26413;SDS011;14108;53.668;10.288;2022-09-03T12:47:40;1.33;;;0.80;;
26413;SDS011;14108;53.668;10.288;2022-09-03T12:50:08;1.75;;;0.75;;
26413;SDS011;14108;53.668;10.288;2022-09-03T12:52:37;1.25;;;0.85;;
26413;SDS011;14108;53.668;10.288;2022-09-03T12:55:06;1.30;;;0.80;;
26413;SDS011;14108;53.668;10.288;2022-09-03T12:57:40;1.75;;;0.90;;
26413;SDS011;14108;53.668;10.288;2022-09-03T13:00:12;3.75;;;0.80;;
26413;SDS011;14108;53.668;10.288;2022-09-03T13:02:40;1.87;;;0.88;;
26413;SDS011;14108;53.668;10.288;2022-09-03T13:05:13;1.00;;;0.90;;
26413;SDS011;14108;53.668;10.288;2022-09-03T13:07:42;5.68;;;0.88;;
26413;SDS011;14108;53.668;10.288;2022-09-03T13:10:15;1.92;;;0.90;;
26413;SDS011;14108;53.668;10.288;2022-09-03T13:12:49;1.10;;;0.68;;
26413;SDS011;14108;53.668;10.288;2022-09-03T13:15:17;2.60;;;0.80;;
26413;SDS011;14108;53.668;10.288;2022-09-03T13:17:54;1.73;;;0.65;;
26413;SDS011;14108;53.668;10.288;2022-09-03T13:20:26;5.70;;;1.00;;
26413;SDS011;14108;53.668;10.288;2022-09-03T13:23:05;1.23;;;0.65;;
26413;SDS011;14108;53.668;10.288;2022-09-03T13:25:38;1.25;;;0.80;;
26413;SDS011;14108;53.668;10.288;2022-09-03T13:28:10;0.85;;;0.60;;
26413;SDS011;14108;53.668;10.288;2022-09-03T13:30:46;2.00;;;0.70;;
26413;SDS011;14108;53.668;10.288;2022-09-03T13:33:16;0.82;;;0.73;;
26413;SDS011;14108;53.668;10.288;2022-09-03T13:35:45;0.98;;;0.80;;
26413;SDS011;14108;53.668;10.288;2022-09-03T13:38:17;1.00;;;0.70;;
26413;SDS011;14108;53.668;10.288;2022-09-03T13:40:50;3.92;;;1.00;;
26413;SDS011;14108;53.668;10.288;2022-09-03T13:43:22;2.08;;;0.80;;
26413;SDS011;14108;53.668;10.288;2022-09-03T13:45:54;2.08;;;0.80;;
26413;SDS011;14108;53.668;10.288;2022-09-03T13:48:24;0.90;;;0.70;;
26413;SDS011;14108;53.668;10.288;2022-09-03T13:51:14;1.50;;;0.73;;
26413;SDS011;14108;53.668;10.288;2022-09-03T13:53:45;2.40;;;0.90;;
26413;SDS011;14108;53.668;10.288;2022-09-03T13:56:17;1.55;;;0.80;;
26413;SDS011;14108;53.668;10.288;2022-09-03T13:58:45;2.33;;;0.80;;
26413;SDS011;14108;53.668;10.288;2022-09-03T14:01:16;1.73;;;0.90;;
26413;SDS011;14108;53.668;10.288;2022-09-03T14:03:49;1.30;;;0.80;;
26413;SDS011;14108;53.668;10.288;2022-09-03T14:06:25;1.77;;;1.00;;
26413;SDS011;14108;53.668;10.288;2022-09-03T14:09:05;1.75;;;0.90;;
26413;SDS011;14108;53.668;10.288;2022-09-03T14:14:08;1.90;;;0.90;;
26413;SDS011;14108;53.668;10.288;2022-09-03T14:16:39;2.92;;;1.00;;
26413;SDS011;14108;53.668;10.288;2022-09-03T14:19:08;1.73;;;0.80;;
26413;SDS011;14108;53.668;10.288;2022-09-03T14:21:39;2.42;;;0.73;;
26413;SDS011;14108;53.668;10.288;2022-09-03T14:24:11;2.67;;;0.80;;
26413;SDS011;14108;53.668;10.288;2022-09-03T14:26:49;3.40;;;0.90;;
26413;SDS011;14108;53.668;10.288;2022-09-03T14:29:17;2.35;;;0.95;;
26413;SDS011;14108;53.668;10.288;2022-09-03T14:31:53;4.18;;;1.17;;
26413;SDS011;14108;53.668;10.288;2022-09-03T14:34:26;1.05;;;0.90;;
26413;SDS011;14108;53.668;10.288;2022-09-03T14:36:59;1.27;;;0.80;;
26413;SDS011;14108;53.668;10.288;2022-09-03T14:39:31;1.12;;;0.70;;
26413;SDS011;14108;53.668;10.288;2022-09-03T14:42:03;1.80;;;0.85;;
26413;SDS011;14108;53.668;10.288;2022-09-03T14:44:37;0.70;;;0.60;;
26413;SDS011;14108;53.668;10.288;2022-09-03T14:49:52;1.15;;;0.90;;
26413;SDS011;14108;53.668;10.288;2022-09-03T14:52:28;0.62;;;0.60;;
26413;SDS011;14108;53.668;10.288;2022-09-03T14:55:05;2.17;;;0.82;;
26413;SDS011;14108;53.668;10.288;2022-09-03T14:57:44;0.57;;;0.52;;
26413;SDS011;14108;53.668;10.288;2022-09-03T15:00:15;1.48;;;0.82;;
26413;SDS011;14108;53.668;10.288;2022-09-03T15:05:54;2.90;;;0.80;;
26413;SDS011;14108;53.668;10.288;2022-09-03T15:08:32;1.02;;;0.70;;
26413;SDS011;14108;53.668;10.288;2022-09-03T15:11:09;1.23;;;0.82;;
26413;SDS011;14108;53.668;10.288;2022-09-03T15:13:44;11.45;;;1.08;;
26413;SDS011;14108;53.668;10.288;2022-09-03T15:16:16;0.90;;;0.70;;
26413;SDS011;14108;53.668;10.288;2022-09-03T15:18:49;1.00;;;0.80;;
26413;SDS011;14108;53.668;10.288;2022-09-03T15:21:19;1.17;;;0.70;;